Time;durP1;ratioP1;P1;durP2;ratioP2;P2;SDS_P1;SDS_P2;PMS_P1;PMS_P2;Temp;Humidity;BMP_temperature;BMP_pressure;BME280_temperature;BME280_humidity;BME280_pressure;Samples;Min_cycle;Max_cycle;Signal;HPM_P1;HPM_P2
2023/07/31 00:01:16;;;;;;;0.40;0.30;;;;;;;24.95;71.75;94799.31;5112081;28;20440;-56
2023/07/31 00:03:44;;;;;;;0.50;0.30;;;;;;;25.06;70.98;94802.94;5111892;28;20479;-55
2023/07/31 00:06:13;;;;;;;0.40;0.30;;;;;;;25.07;71.76;94795.56;5111602;28;20465;-55
2023/07/31 00:08:41;;;;;;;0.50;0.40;;;;;;;25.08;71.70;94795.19;5112289;28;20940;-55
2023/07/31 00:11:09;;;;;;;0.40;0.30;;;;;;;25.04;71.77;94799.03;5111967;28;20949;-55
2023/07/31 00:13:39;;;;;;;0.53;0.40;;;;;;;24.98;71.04;94795.88;5112221;28;20439;-55
2023/07/31 00:16:07;;;;;;;0.40;0.20;;;;;;;24.98;71.92;94806.72;5111468;28;20467;-55
2023/07/31 00:18:36;;;;;;;0.60;0.50;;;;;;;25.12;71.41;94795.22;5111884;28;20515;-55
2023/07/31 00:21:04;;;;;;;0.50;0.40;;;;;;;24.91;71.42;94795.03;5114680;28;20492;-55
2023/07/31 00:23:32;;;;;;;0.60;0.60;;;;;;;24.86;71.72;94793.44;5116027;28;20528;-55
2023/07/31 00:26:01;;;;;;;0.50;0.40;;;;;;;25.00;71.72;94803.63;5115636;27;20436;-55
2023/07/31 00:28:29;;;;;;;0.63;0.63;;;;;;;25.13;71.27;94789.44;5116019;28;20443;-55
2023/07/31 00:30:59;;;;;;;0.40;0.30;;;;;;;25.24;70.52;94784.88;5115959;27;20451;-55
2023/07/31 00:33:28;;;;;;;0.50;0.47;;;;;;;25.24;70.48;94782.16;5113165;28;20439;-55
2023/07/31 00:35:56;;;;;;;0.50;0.40;;;;;;;25.24;71.51;94779.47;5115715;28;20440;-55
2023/07/31 00:38:24;;;;;;;0.50;0.30;;;;;;;25.13;72.94;94789.44;5115615;28;20435;-55
2023/07/31 00:40:53;;;;;;;0.70;0.67;;;;;;;24.93;73.29;94782.66;5116092;28;20446;-55
2023/07/31 00:43:21;;;;;;;0.57;0.50;;;;;;;24.39;76.59;94783.19;5115562;28;20463;-55
2023/07/31 00:45:49;;;;;;;1.03;0.60;;;;;;;24.11;81.07;94784.78;5115933;28;20826;-55
2023/07/31 00:48:19;;;;;;;0.50;0.43;;;;;;;24.07;84.13;94776.59;5115094;28;20498;-55
2023/07/31 00:50:48;;;;;;;1.80;0.70;;;;;;;24.24;83.97;94777.97;5115888;28;20435;-55
2023/07/31 00:53:16;;;;;;;0.60;0.60;;;;;;;24.25;83.79;94782.25;5115374;28;20444;-55
2023/07/31 00:55:45;;;;;;;0.53;0.47;;;;;;;24.50;81.18;94778.69;5115684;28;20440;-55
2023/07/31 00:58:14;;;;;;;0.60;0.40;;;;;;;24.73;83.79;94778.53;5115491;28;20440;-55
2023/07/31 01:00:42;;;;;;;0.40;0.30;;;;;;;24.70;84.25;94779.28;5115107;28;20468;-55
2023/07/31 01:03:11;;;;;;;0.50;0.40;;;;;;;24.68;85.14;94780.81;5114545;28;20475;-55
2023/07/31 01:05:54;;;;;;;0.87;0.60;;;;;;;24.54;93.22;94786.88;5115368;28;20801;-55
2023/07/31 01:08:42;;;;;;;0.47;0.37;;;;;;;24.62;88.02;94783.06;5108098;28;21025;-55
2023/07/31 01:11:18;;;;;;;0.50;0.30;;;;;;;24.72;85.88;94771.56;5111530;28;20451;-55
2023/07/31 01:13:47;;;;;;;0.60;0.40;;;;;;;24.78;85.39;94772.03;5115014;28;20436;-55
2023/07/31 01:16:16;;;;;;;0.50;0.30;;;;;;;24.85;83.85;94778.31;5115403;28;20436;-55
2023/07/31 01:18:44;;;;;;;1.30;0.70;;;;;;;24.37;95.51;94776.59;5115039;28;20465;-55
2023/07/31 01:21:31;;;;;;;0.50;0.47;;;;;;;24.20;96.21;94772.53;5115003;28;20938;-55
2023/07/31 01:24:29;;;;;;;0.50;0.50;;;;;;;24.25;93.13;94784.97;5114578;28;21023;-55
2023/07/31 01:27:07;;;;;;;0.90;0.50;;;;;;;24.51;87.70;94776.78;5108071;27;20447;-55
2023/07/31 01:29:44;;;;;;;0.60;0.50;;;;;;;24.73;87.06;94783.97;5114663;28;20785;-55
2023/07/31 01:32:14;;;;;;;0.50;0.40;;;;;;;24.73;90.39;94799.44;5114411;28;20431;-55
2023/07/31 01:34:43;;;;;;;0.60;0.50;;;;;;;23.87;100.00;94816.53;5114502;28;20484;-55
2023/07/31 01:37:11;;;;;;;1.10;0.80;;;;;;;23.54;100.00;94813.72;5114470;28;20501;-55
2023/07/31 01:39:40;;;;;;;1.20;1.13;;;;;;;22.98;100.00;94813.53;5114813;28;20531;-56
2023/07/31 01:42:09;;;;;;;1.30;1.20;;;;;;;22.69;100.00;94812.22;5114399;28;20461;-56
2023/07/31 01:44:38;;;;;;;0.70;0.70;;;;;;;22.99;100.00;94808.91;5115034;28;21018;-56
2023/07/31 01:47:07;;;;;;;0.70;0.60;;;;;;;23.54;100.00;94807.53;5114268;27;20440;-56
2023/07/31 01:49:35;;;;;;;1.10;0.80;;;;;;;23.76;100.00;94820.22;5114370;28;20436;-56
2023/07/31 01:52:04;;;;;;;0.53;0.50;;;;;;;23.61;100.00;94815.75;5113909;28;20810;-56
2023/07/31 01:54:33;;;;;;;0.60;0.40;;;;;;;23.49;100.00;94819.44;5114316;28;20440;-56
2023/07/31 01:57:01;;;;;;;0.90;0.50;;;;;;;23.59;100.00;94812.63;5114331;28;20488;-55
2023/07/31 01:59:31;;;;;;;0.50;0.30;;;;;;;23.50;100.00;94775.03;5113478;28;20838;-55
2023/07/31 02:01:59;;;;;;;0.60;0.40;;;;;;;23.85;100.00;94826.97;5114098;28;20447;-56
2023/07/31 02:04:28;;;;;;;0.40;0.33;;;;;;;23.99;100.00;94827.16;5113779;28;20467;-56
2023/07/31 02:06:56;;;;;;;0.50;0.30;;;;;;;24.03;100.00;94816.38;5114440;28;20502;-55
2023/07/31 02:09:24;;;;;;;0.60;0.40;;;;;;;24.09;100.00;94812.22;5113560;28;20435;-55
2023/07/31 02:11:53;;;;;;;0.63;0.37;;;;;;;24.16;98.94;94815.03;5114233;28;20859;-55
2023/07/31 02:14:21;;;;;;;0.50;0.30;;;;;;;24.16;100.00;94798.00;5113723;28;20524;-55
2023/07/31 02:16:51;;;;;;;0.97;0.83;;;;;;;23.63;100.00;94803.41;5114118;28;20469;-55
2023/07/31 02:19:19;;;;;;;0.50;0.40;;;;;;;23.79;100.00;94798.63;5112639;28;20451;-55
2023/07/31 02:21:47;;;;;;;0.90;0.60;;;;;;;23.93;100.00;94801.53;5113652;28;20448;-55
2023/07/31 02:24:16;;;;;;;0.50;0.40;;;;;;;24.03;100.00;94800.13;5113229;28;20467;-55
2023/07/31 02:26:44;;;;;;;0.40;0.33;;;;;;;24.08;100.00;94796.34;5113268;28;20447;-55
2023/07/31 02:29:12;;;;;;;2.40;0.90;;;;;;;23.46;100.00;94778.81;5113543;28;20432;-55
2023/07/31 02:31:41;;;;;;;1.00;1.00;;;;;;;23.59;100.00;94786.38;5113604;28;20956;-55
2023/07/31 02:34:10;;;;;;;0.50;0.43;;;;;;;23.73;100.00;94772.28;5107776;28;20474;-55
2023/07/31 02:36:39;;;;;;;0.53;0.53;;;;;;;23.74;100.00;94771.88;5106829;28;20489;-55
2023/07/31 02:39:08;;;;;;;0.50;0.40;;;;;;;23.56;100.00;94775.47;5112956;28;20864;-56
2023/07/31 02:41:36;;;;;;;7.90;0.70;;;;;;;23.41;100.00;94779.91;5112999;28;20944;-56
2023/07/31 02:44:05;;;;;;;0.50;0.30;;;;;;;23.51;100.00;94779.28;5112796;28;20916;-56
2023/07/31 02:46:33;;;;;;;0.50;0.37;;;;;;;23.79;100.00;94779.69;5113225;27;20448;-56
2023/07/31 02:49:01;;;;;;;0.50;0.47;;;;;;;23.82;100.00;94778.97;5112719;28;20528;-56
2023/07/31 02:51:31;;;;;;;0.67;0.67;;;;;;;23.33;100.00;94786.31;5112420;28;20447;-55
2023/07/31 02:53:59;;;;;;;0.50;0.40;;;;;;;23.16;100.00;94781.41;5113133;28;20496;-56
2023/07/31 02:56:28;;;;;;;1.20;0.97;;;;;;;22.93;100.00;94780.63;5112528;28;20511;-56
2023/07/31 02:58:56;;;;;;;0.70;0.60;;;;;;;22.66;100.00;94775.16;5112465;28;20443;-56
2023/07/31 03:01:25;;;;;;;1.00;0.90;;;;;;;23.21;100.00;94779.19;5112474;28;20439;-56
2023/07/31 03:03:53;;;;;;;0.80;0.50;;;;;;;23.04;100.00;94778.88;5112599;28;21052;-56
2023/07/31 03:06:21;;;;;;;0.60;0.50;;;;;;;22.75;100.00;94788.41;5112431;27;20489;-56
2023/07/31 03:08:51;;;;;;;0.73;0.63;;;;;;;22.77;100.00;94792.31;5112868;28;20953;-56
2023/07/31 03:11:19;;;;;;;0.83;0.70;;;;;;;22.59;100.00;94788.47;5112635;28;20440;-56
2023/07/31 03:13:48;;;;;;;4.73;2.40;;;;;;;22.36;100.00;94795.75;5112956;28;20443;-58
2023/07/31 03:16:16;;;;;;;1.03;1.03;;;;;;;22.13;100.00;94800.31;5112718;28;20470;-57
2023/07/31 03:18:44;;;;;;;0.80;0.80;;;;;;;22.14;100.00;94797.22;5112941;28;20440;-57
2023/07/31 03:21:13;;;;;;;0.80;0.80;;;;;;;22.31;100.00;94796.03;5112458;28;20971;-58
2023/07/31 03:23:43;;;;;;;1.57;0.60;;;;;;;22.89;100.00;94796.78;5112085;28;20440;-57
2023/07/31 03:26:13;;;;;;;0.50;0.50;;;;;;;22.96;100.00;94796.91;5112385;28;20443;-57
2023/07/31 03:28:41;;;;;;;0.80;0.67;;;;;;;22.51;100.00;94786.00;5112159;28;20816;-57
2023/07/31 03:31:11;;;;;;;0.50;0.50;;;;;;;22.70;100.00;94778.69;5112510;28;20447;-58
2023/07/31 03:33:39;;;;;;;0.70;0.60;;;;;;;22.94;100.00;94780.28;5112218;28;20440;-58
2023/07/31 03:36:08;;;;;;;1.33;0.47;;;;;;;23.01;100.00;94782.31;5112058;28;20440;-58
2023/07/31 03:38:36;;;;;;;0.60;0.60;;;;;;;23.09;100.00;94784.78;5111850;28;20444;-58
2023/07/31 03:41:06;;;;;;;0.43;0.40;;;;;;;23.29;100.00;94786.25;5112328;28;20461;-57
2023/07/31 03:43:35;;;;;;;0.70;0.50;;;;;;;23.53;100.00;94795.91;5112175;28;20436;-57
2023/07/31 03:46:04;;;;;;;0.83;0.83;;;;;;;23.47;100.00;94796.59;5101521;28;21020;-57
2023/07/31 03:48:32;;;;;;;0.60;0.50;;;;;;;23.17;100.00;94804.59;5109525;28;20546;-57
2023/07/31 03:51:01;;;;;;;0.60;0.60;;;;;;;23.29;100.00;94807.13;5112177;28;20808;-57
2023/07/31 03:53:29;;;;;;;0.50;0.40;;;;;;;23.46;100.00;94814.75;5110955;28;20471;-57
2023/07/31 03:55:57;;;;;;;0.70;0.60;;;;;;;23.40;100.00;94820.84;5111129;28;20436;-57
2023/07/31 03:58:26;;;;;;;0.90;0.80;;;;;;;23.20;100.00;94818.16;5111031;28;20443;-57
2023/07/31 04:00:55;;;;;;;0.63;0.63;;;;;;;23.12;100.00;94830.00;5111457;28;20436;-57
2023/07/31 04:03:24;;;;;;;0.77;0.57;;;;;;;23.56;100.00;94819.53;5111855;28;20485;-56
2023/07/31 04:05:55;;;;;;;0.70;0.70;;;;;;;23.08;100.00;94731.84;5111983;28;20479;-57
2023/07/31 04:08:24;;;;;;;2.17;0.47;;;;;;;23.73;100.00;94824.44;5111785;28;20436;-57
2023/07/31 04:10:52;;;;;;;0.50;0.40;;;;;;;23.77;100.00;94822.59;5111774;28;20436;-56
2023/07/31 04:13:20;;;;;;;0.60;0.33;;;;;;;23.74;100.00;94830.63;5111812;28;20865;-56
2023/07/31 04:15:52;;;;;;;1.30;0.97;;;;;;;23.54;100.00;94829.97;5111565;28;20595;-56
2023/07/31 04:18:22;;;;;;;0.60;0.60;;;;;;;23.62;100.00;94828.13;5111585;28;20545;-56
2023/07/31 04:20:50;;;;;;;0.80;0.80;;;;;;;23.27;100.00;94826.41;5111250;28;20439;-56
2023/07/31 04:23:18;;;;;;;0.80;0.80;;;;;;;22.95;100.00;94827.75;5111783;28;20511;-56
2023/07/31 04:25:46;;;;;;;0.70;0.70;;;;;;;22.94;100.00;94828.91;5111138;28;20528;-56
2023/07/31 04:28:15;;;;;;;1.07;1.07;;;;;;;22.86;100.00;94840.72;5111582;28;20515;-56
2023/07/31 04:30:43;;;;;;;0.80;0.80;;;;;;;22.77;100.00;94844.81;5111291;28;20523;-56
2023/07/31 04:33:11;;;;;;;0.70;0.67;;;;;;;22.92;100.00;94830.41;5111524;28;20940;-56
2023/07/31 04:35:41;;;;;;;1.03;0.70;;;;;;;22.62;100.00;94782.38;5111757;28;20838;-56
2023/07/31 04:38:09;;;;;;;1.20;1.13;;;;;;;22.83;100.00;94851.47;5111971;28;20469;-55
2023/07/31 04:40:38;;;;;;;1.57;0.60;;;;;;;22.94;100.00;94839.72;5110037;28;20432;-55
2023/07/31 04:43:06;;;;;;;0.70;0.70;;;;;;;23.24;100.00;94835.25;5111544;28;20794;-55
2023/07/31 04:45:34;;;;;;;0.67;0.60;;;;;;;23.45;100.00;94840.25;5110923;28;20479;-55
2023/07/31 04:48:03;;;;;;;1.60;0.90;;;;;;;23.37;100.00;94849.38;5110964;28;20476;-55
2023/07/31 04:50:31;;;;;;;0.87;0.87;;;;;;;23.52;100.00;94836.88;5110872;28;20443;-56
2023/07/31 04:53:01;;;;;;;0.60;0.40;;;;;;;23.55;100.00;94839.66;5111063;28;20941;-55
2023/07/31 04:55:29;;;;;;;1.20;1.10;;;;;;;23.80;100.00;94829.97;5111067;28;20444;-56
2023/07/31 04:57:59;;;;;;;0.73;0.60;;;;;;;23.86;100.00;94828.50;5110991;28;20460;-55
2023/07/31 05:00:28;;;;;;;0.90;0.80;;;;;;;24.06;100.00;94836.53;5111347;28;20447;-55
2023/07/31 05:02:56;;;;;;;1.53;0.90;;;;;;;24.15;100.00;94837.84;5111280;28;20435;-55
2023/07/31 05:05:25;;;;;;;0.50;0.40;;;;;;;23.83;100.00;94834.63;5112018;28;20499;-55
2023/07/31 05:07:53;;;;;;;0.97;0.70;;;;;;;23.69;100.00;94837.16;5114982;28;20493;-55
2023/07/31 05:10:23;;;;;;;2.77;1.30;;;;;;;23.90;100.00;94834.78;5115640;28;20436;-55
2023/07/31 05:12:51;;;;;;;0.73;0.70;;;;;;;24.16;100.00;94835.91;5114868;28;20479;-55
2023/07/31 05:15:19;;;;;;;0.60;0.60;;;;;;;24.39;100.00;94836.59;5115263;28;20447;-55
2023/07/31 05:17:48;;;;;;;0.83;0.53;;;;;;;24.50;100.00;94837.50;5115286;28;20519;-55
2023/07/31 05:20:16;;;;;;;0.57;0.40;;;;;;;24.58;100.00;94845.38;5114666;28;20504;-54
2023/07/31 05:22:45;;;;;;;0.50;0.50;;;;;;;24.77;100.00;94846.34;5114514;28;20443;-55
2023/07/31 05:25:13;;;;;;;0.77;0.77;;;;;;;24.61;98.25;94846.56;5114287;28;20467;-55
2023/07/31 05:27:43;;;;;;;0.87;0.87;;;;;;;24.74;95.47;94847.09;5115024;28;20497;-55
2023/07/31 05:30:12;;;;;;;1.00;0.87;;;;;;;24.75;94.82;94843.22;5114876;28;20443;-55
2023/07/31 05:32:40;;;;;;;1.00;1.00;;;;;;;24.81;93.90;94855.34;5114301;28;21022;-55
2023/07/31 05:35:08;;;;;;;0.70;0.60;;;;;;;24.95;93.67;94847.34;5114436;28;20432;-55
2023/07/31 05:37:37;;;;;;;0.73;0.73;;;;;;;25.19;87.19;94844.91;5115070;28;20805;-55
2023/07/31 05:40:07;;;;;;;5.03;1.27;;;;;;;25.42;88.20;94847.44;5113855;27;20440;-55
2023/07/31 05:42:37;;;;;;;0.90;0.50;;;;;;;25.45;85.80;94843.97;5115020;28;20447;-55
2023/07/31 05:45:08;;;;;;;0.70;0.70;;;;;;;25.13;79.13;94851.81;5114482;28;20508;-56
2023/07/31 05:47:37;;;;;;;1.90;1.17;;;;;;;25.37;78.64;94847.78;5114224;28;20471;-55
2023/07/31 05:50:05;;;;;;;0.60;0.60;;;;;;;25.39;78.19;94841.97;5114271;28;20506;-55
2023/07/31 05:52:34;;;;;;;1.73;1.07;;;;;;;25.58;73.71;94849.91;5114554;28;20505;-55
2023/07/31 05:55:02;;;;;;;1.27;1.20;;;;;;;25.74;74.48;94847.72;5114254;28;20440;-55
2023/07/31 05:57:31;;;;;;;0.50;0.40;;;;;;;26.09;73.10;94849.88;5114405;28;20880;-56
2023/07/31 05:59:59;;;;;;;0.80;0.50;;;;;;;26.15;72.06;94851.91;5114204;28;20489;-55
2023/07/31 06:02:33;;;;;;;1.17;1.17;;;;;;;26.31;78.35;94849.66;5113185;28;20525;-56
2023/07/31 06:05:01;;;;;;;1.10;1.10;;;;;;;25.59;98.03;94851.47;5112415;28;20432;-56
2023/07/31 06:07:29;;;;;;;0.70;0.70;;;;;;;26.14;91.65;94842.19;5112912;28;20479;-56
2023/07/31 06:10:03;;;;;;;0.70;0.60;;;;;;;26.61;91.75;94846.72;5087415;28;20444;-56
2023/07/31 06:12:32;;;;;;;2.60;1.30;;;;;;;26.01;92.65;94843.63;5113514;28;20455;-56
2023/07/31 06:15:00;;;;;;;1.57;1.47;;;;;;;26.45;90.31;94822.56;5113066;28;20474;-56
2023/07/31 06:17:30;;;;;;;3.20;1.17;;;;;;;26.49;90.03;94839.66;5113176;28;20519;-56
2023/07/31 06:19:59;;;;;;;2.30;0.93;;;;;;;26.52;88.29;94835.38;5113679;28;20627;-56
2023/07/31 06:22:27;;;;;;;0.77;0.60;;;;;;;27.20;86.47;94834.47;5113999;28;20467;-56
2023/07/31 06:24:55;;;;;;;1.23;1.23;;;;;;;27.26;82.84;94834.84;5113918;28;20440;-57
2023/07/31 06:27:24;;;;;;;0.60;0.60;;;;;;;27.81;78.56;94830.63;5114054;28;20829;-57
2023/07/31 06:29:53;;;;;;;0.50;0.40;;;;;;;28.22;74.93;94834.50;5113995;28;20485;-58
2023/07/31 06:32:21;;;;;;;1.00;0.90;;;;;;;27.62;75.30;94831.03;5113285;28;20439;-59
2023/07/31 06:34:51;;;;;;;0.93;0.93;;;;;;;28.02;75.20;94829.84;5113665;28;21015;-55
2023/07/31 06:37:19;;;;;;;1.00;0.60;;;;;;;28.50;73.31;94839.06;5113270;28;20825;-55
2023/07/31 06:39:48;;;;;;;1.20;1.10;;;;;;;28.07;71.13;94830.25;5113246;28;20435;-55
2023/07/31 06:42:16;;;;;;;1.10;0.93;;;;;;;27.35;76.22;94830.59;5113544;28;20431;-55
2023/07/31 06:44:44;;;;;;;1.17;1.13;;;;;;;27.19;76.38;94827.47;5113435;28;20523;-55
2023/07/31 06:47:13;;;;;;;0.60;0.60;;;;;;;27.92;74.50;94825.94;5113124;28;20475;-55
2023/07/31 06:49:41;;;;;;;1.30;1.20;;;;;;;28.17;70.99;94809.59;5113021;28;20455;-55
2023/07/31 06:52:12;;;;;;;0.97;0.97;;;;;;;28.13;71.99;94817.75;5113256;28;20932;-56
2023/07/31 06:54:40;;;;;;;1.63;1.53;;;;;;;28.50;71.53;94820.00;5113230;28;20940;-56
2023/07/31 06:57:09;;;;;;;0.70;0.70;;;;;;;28.55;69.49;94814.13;5113276;28;20439;-56
2023/07/31 06:59:37;;;;;;;0.50;0.40;;;;;;;28.63;70.89;94815.69;5113256;28;20867;-55
2023/07/31 07:02:06;;;;;;;0.97;0.97;;;;;;;29.43;65.86;94810.94;5113517;28;20472;-55
2023/07/31 07:04:35;;;;;;;0.83;0.70;;;;;;;29.26;66.47;94808.34;5109885;28;20436;-55
2023/07/31 07:07:03;;;;;;;1.03;0.93;;;;;;;29.54;64.56;94805.41;5103074;28;21080;-55
2023/07/31 07:09:33;;;;;;;1.23;0.80;;;;;;;29.13;64.51;94799.81;5112699;28;20570;-55
2023/07/31 07:12:02;;;;;;;0.70;0.60;;;;;;;29.68;62.10;94802.56;5113193;28;20467;-56
2023/07/31 07:14:30;;;;;;;8.30;2.03;;;;;;;28.88;63.54;94808.16;5112206;28;20446;-55
2023/07/31 07:16:58;;;;;;;1.43;1.33;;;;;;;29.56;63.32;94808.50;5112881;28;20843;-56
2023/07/31 07:19:27;;;;;;;1.00;0.90;;;;;;;29.89;61.76;94818.00;5112307;28;20450;-56
2023/07/31 07:21:56;;;;;;;1.03;1.00;;;;;;;30.27;60.71;94816.06;5113198;28;20440;-56
2023/07/31 07:24:24;;;;;;;1.53;1.47;;;;;;;30.43;59.12;94813.59;5112157;28;20485;-56
2023/07/31 07:26:54;;;;;;;1.13;1.00;;;;;;;29.91;59.82;94810.97;5112600;28;20569;-54
2023/07/31 07:29:22;;;;;;;1.13;0.83;;;;;;;30.46;57.44;94807.31;5111704;28;20431;-54
2023/07/31 07:31:50;;;;;;;0.83;0.83;;;;;;;29.67;59.89;94806.47;5112485;28;20440;-54
2023/07/31 07:34:19;;;;;;;0.67;0.60;;;;;;;29.71;58.52;94801.75;5112280;28;20435;-55
2023/07/31 07:36:47;;;;;;;1.57;0.80;;;;;;;30.32;56.96;94802.75;5112611;28;20508;-54
2023/07/31 07:39:15;;;;;;;0.93;0.93;;;;;;;30.48;55.41;94813.94;5112510;28;20446;-54
2023/07/31 07:41:44;;;;;;;3.63;1.07;;;;;;;30.90;54.67;94804.44;5112152;27;20431;-55
2023/07/31 07:44:14;;;;;;;1.03;0.93;;;;;;;30.80;53.84;94799.84;5112623;28;20544;-54
2023/07/31 07:46:43;;;;;;;0.57;0.53;;;;;;;30.96;54.60;94796.53;5111945;28;20474;-54
2023/07/31 07:49:11;;;;;;;0.70;0.60;;;;;;;31.34;52.88;94792.47;5111701;28;20476;-54
2023/07/31 07:51:40;;;;;;;1.53;0.93;;;;;;;31.65;52.61;94782.22;5111314;28;21012;-55
2023/07/31 07:54:09;;;;;;;1.70;1.60;;;;;;;31.39;51.28;94792.78;5112038;28;20443;-54
2023/07/31 07:56:37;;;;;;;4.40;2.10;;;;;;;31.32;51.13;94792.84;5111938;28;20431;-54
2023/07/31 07:59:06;;;;;;;0.97;0.70;;;;;;;31.91;50.89;94789.59;5111996;28;20488;-54
2023/07/31 08:01:36;;;;;;;0.77;0.77;;;;;;;32.23;50.28;94789.06;5112400;28;20466;-54
2023/07/31 08:04:04;;;;;;;1.20;1.00;;;;;;;32.14;49.51;94783.31;5112119;28;20950;-54
2023/07/31 08:06:33;;;;;;;1.70;1.20;;;;;;;32.28;48.81;94780.34;5111913;28;20530;-55
2023/07/31 08:09:05;;;;;;;1.10;1.00;;;;;;;32.69;46.50;94780.69;5111800;28;20446;-55
2023/07/31 08:11:33;;;;;;;1.30;1.20;;;;;;;33.18;45.42;94779.66;5085439;28;20491;-54
2023/07/31 08:14:02;;;;;;;0.60;0.53;;;;;;;33.24;45.59;94766.19;5112229;28;20442;-54
2023/07/31 08:16:30;;;;;;;0.60;0.60;;;;;;;33.04;46.01;94777.22;5112498;28;20430;-54
2023/07/31 08:19:00;;;;;;;4.53;0.57;;;;;;;33.30;43.69;94786.44;5111602;28;20777;-54
2023/07/31 08:21:29;;;;;;;0.77;0.60;;;;;;;33.00;43.92;94781.22;5111798;28;20877;-54
2023/07/31 08:23:57;;;;;;;0.77;0.77;;;;;;;34.08;43.17;94773.59;5111683;28;20447;-54
2023/07/31 08:26:25;;;;;;;0.60;0.60;;;;;;;34.76;41.96;94774.03;5112181;28;20435;-54
2023/07/31 08:28:54;;;;;;;0.43;0.30;;;;;;;34.90;42.76;94764.59;5111808;28;20457;-54
2023/07/31 08:31:22;;;;;;;2.37;0.80;;;;;;;34.24;41.98;94751.53;5101379;28;20504;-54
2023/07/31 08:33:50;;;;;;;0.70;0.70;;;;;;;34.22;42.17;94756.69;5105142;28;20513;-54
2023/07/31 08:36:20;;;;;;;0.97;0.60;;;;;;;34.15;42.09;94759.63;5091322;28;20941;-54
2023/07/31 08:38:49;;;;;;;0.70;0.60;;;;;;;34.43;42.29;94753.38;5108442;28;20521;-54
2023/07/31 08:41:18;;;;;;;0.80;0.50;;;;;;;34.59;44.77;94747.81;5113695;28;20529;-54
2023/07/31 08:43:47;;;;;;;0.70;0.70;;;;;;;35.21;43.06;94745.59;5115839;28;20438;-54
2023/07/31 08:46:16;;;;;;;0.60;0.60;;;;;;;35.47;39.41;94747.88;5115678;28;20258;-54
2023/07/31 08:48:45;;;;;;;3.67;1.10;;;;;;;34.38;39.04;94754.66;5115175;28;20236;-53
2023/07/31 08:51:33;;;;;;;0.80;0.77;;;;;;;35.19;39.15;94745.25;5115383;28;20212;-53
2023/07/31 08:54:03;;;;;;;0.60;0.60;;;;;;;34.50;38.06;94744.91;5093218;28;20239;-53
2023/07/31 08:56:33;;;;;;;1.00;0.83;;;;;;;34.87;38.41;94678.13;5115277;28;20276;-53
2023/07/31 08:59:03;;;;;;;0.80;0.70;;;;;;;34.30;40.27;94745.06;5115249;28;20193;-53
2023/07/31 09:01:37;;;;;;;0.50;0.50;;;;;;;34.37;39.61;94744.88;5115450;28;20245;-53
2023/07/31 09:04:06;;;;;;;0.80;0.80;;;;;;;34.35;41.10;94746.50;5115377;28;20197;-53
2023/07/31 09:06:36;;;;;;;1.07;1.07;;;;;;;34.08;40.54;94748.84;5115628;28;20197;-53
2023/07/31 09:09:06;;;;;;;0.33;0.30;;;;;;;34.73;38.68;94747.41;5115012;28;20273;-53
2023/07/31 09:11:34;;;;;;;0.70;0.70;;;;;;;35.05;37.68;94741.72;5088438;28;20192;-53
2023/07/31 09:14:08;;;;;;;0.87;0.40;;;;;;;34.73;39.50;94741.13;5114272;28;20227;-53
2023/07/31 09:16:37;;;;;;;0.50;0.50;;;;;;;34.03;40.08;94615.31;5114997;28;20192;-53
2023/07/31 09:19:05;;;;;;;0.60;0.40;;;;;;;34.47;39.91;94735.53;5115422;28;20434;-53
2023/07/31 09:21:34;;;;;;;0.70;0.50;;;;;;;33.03;40.98;94627.41;5115441;28;20496;-53
2023/07/31 09:24:02;;;;;;;0.70;0.67;;;;;;;33.52;40.00;94737.25;5114817;28;20430;-53
2023/07/31 09:26:33;;;;;;;0.40;0.40;;;;;;;33.81;41.22;94735.34;5115227;28;20503;-53
2023/07/31 09:29:02;;;;;;;0.40;0.30;;;;;;;33.20;40.51;94738.00;5114436;28;20561;-53
2023/07/31 09:31:41;;;;;;;0.50;0.50;;;;;;;32.45;41.10;94670.25;5114950;28;20470;-54
2023/07/31 09:34:11;;;;;;;0.40;0.40;;;;;;;32.67;42.15;94730.16;5111492;28;20435;-54
2023/07/31 09:36:43;;;;;;;0.60;0.47;;;;;;;32.70;42.37;94734.81;5107127;28;20438;-53
2023/07/31 09:39:13;;;;;;;0.60;0.60;;;;;;;33.21;41.78;94736.81;5087807;28;20446;-53
2023/07/31 09:41:45;;;;;;;0.70;0.50;;;;;;;34.17;42.17;94732.47;5114177;28;20492;-53
2023/07/31 09:44:13;;;;;;;0.50;0.50;;;;;;;35.07;41.77;94725.53;5114410;28;20525;-53
2023/07/31 09:46:42;;;;;;;0.50;0.40;;;;;;;35.29;37.64;94722.88;5114213;28;20920;-52
2023/07/31 09:49:13;;;;;;;0.60;0.50;;;;;;;36.54;36.30;94725.72;5114338;28;20544;-52
2023/07/31 09:51:43;;;;;;;0.73;0.73;;;;;;;36.38;36.02;94721.16;5113402;28;20468;-52
2023/07/31 09:54:12;;;;;;;0.40;0.40;;;;;;;36.85;35.49;94726.53;5114049;28;20229;-54
2023/07/31 09:56:45;;;;;;;0.50;0.50;;;;;;;36.96;34.51;94724.16;5114426;28;20672;-54
2023/07/31 09:59:14;;;;;;;1.10;1.00;;;;;;;36.43;34.38;94711.53;5114365;28;20197;-54
2023/07/31 10:01:44;;;;;;;1.00;0.90;;;;;;;36.05;35.01;94704.19;5114207;28;20197;-54
2023/07/31 10:04:14;;;;;;;0.63;0.63;;;;;;;35.43;37.04;94696.84;5114598;28;20193;-56
2023/07/31 10:06:44;;;;;;;0.40;0.40;;;;;;;34.92;39.17;94701.59;5087449;28;20193;-55
2023/07/31 10:09:16;;;;;;;0.70;0.70;;;;;;;35.08;39.94;94694.03;5113697;28;20215;-54
2023/07/31 10:11:52;;;;;;;0.90;0.90;;;;;;;35.22;39.97;94640.44;5114097;28;20197;-55
2023/07/31 10:14:21;;;;;;;0.77;0.77;;;;;;;35.91;37.33;94634.94;5113552;28;20196;-54
2023/07/31 10:16:51;;;;;;;0.70;0.70;;;;;;;36.91;35.67;94688.81;5114467;28;20223;-54
2023/07/31 10:19:20;;;;;;;1.03;0.93;;;;;;;36.38;35.94;94682.53;5113608;28;20242;-54
2023/07/31 10:21:50;;;;;;;1.20;1.10;;;;;;;35.22;36.74;94690.03;5113924;28;20205;-54
2023/07/31 10:24:18;;;;;;;0.83;0.83;;;;;;;35.30;37.88;94688.59;5111009;28;20189;-55
2023/07/31 10:26:49;;;;;;;1.27;1.17;;;;;;;35.16;38.14;94682.78;5105450;28;20208;-55
2023/07/31 10:29:20;;;;;;;0.50;0.40;;;;;;;34.55;38.19;94680.31;5113003;28;20303;-55
2023/07/31 10:31:49;;;;;;;1.33;0.60;;;;;;;34.48;38.42;94684.78;5113609;28;20197;-56
2023/07/31 10:34:18;;;;;;;1.37;1.37;;;;;;;33.35;39.58;94634.81;5113647;28;20476;-56
2023/07/31 10:36:46;;;;;;;0.70;0.70;;;;;;;33.18;41.09;94689.03;5113384;28;20480;-57
2023/07/31 10:39:36;;;;;;;0.40;0.40;;;;;;;33.24;42.43;94689.28;5113708;28;20500;-56
2023/07/31 10:42:14;;;;;;;0.70;0.60;;;;;;;33.12;41.67;94665.22;5113407;28;20912;-51
2023/07/31 10:44:46;;;;;;;1.83;0.60;;;;;;;32.75;41.16;94677.44;5113493;28;20501;-50
2023/07/31 10:47:17;;;;;;;0.80;0.60;;;;;;;33.19;39.73;94687.06;5113058;28;20948;-50
2023/07/31 10:49:47;;;;;;;0.53;0.53;;;;;;;33.01;43.00;94681.16;5112952;28;20470;-50
2023/07/31 10:52:22;;;;;;;0.67;0.67;;;;;;;32.64;40.85;94674.94;5113082;28;20442;-50
2023/07/31 10:55:25;;;;;;;1.43;0.77;;;;;;;32.29;42.26;94681.16;5112817;28;20473;-52
2023/07/31 10:57:56;;;;;;;0.93;0.73;;;;;;;32.24;42.17;94678.13;5113044;28;20502;-51
2023/07/31 11:00:28;;;;;;;2.20;0.80;;;;;;;31.48;42.79;94602.47;5113072;28;20764;-51
2023/07/31 11:03:04;;;;;;;0.53;0.50;;;;;;;31.86;42.77;94667.50;5112648;28;20435;-51
2023/07/31 11:05:47;;;;;;;0.50;0.50;;;;;;;31.99;43.39;94673.94;5112944;28;20449;-51
2023/07/31 11:08:17;;;;;;;0.70;0.53;;;;;;;32.01;44.50;94651.56;5112757;28;20467;-51
2023/07/31 11:10:47;;;;;;;0.77;0.77;;;;;;;32.13;43.46;94680.34;5113039;28;20437;-52
2023/07/31 11:13:17;;;;;;;2.43;1.30;;;;;;;32.06;42.60;94677.72;5112993;28;20454;-52
2023/07/31 11:15:48;;;;;;;0.40;0.40;;;;;;;32.22;42.40;94677.78;5112517;28;20439;-52
2023/07/31 11:18:16;;;;;;;0.97;0.47;;;;;;;32.45;42.19;94669.47;5112653;28;20999;-51
2023/07/31 11:20:45;;;;;;;0.40;0.30;;;;;;;32.60;42.64;94670.72;5100677;28;20464;-51
2023/07/31 11:23:13;;;;;;;0.40;0.30;;;;;;;32.63;41.78;94670.66;5087389;28;20454;-52
2023/07/31 11:25:42;;;;;;;0.87;0.47;;;;;;;32.39;43.59;94674.69;5112344;28;20445;-52
2023/07/31 11:28:12;;;;;;;0.60;0.60;;;;;;;31.98;44.28;94666.91;5112452;28;20439;-52
2023/07/31 11:30:42;;;;;;;3.30;0.60;;;;;;;32.09;43.28;94671.41;5112659;28;20816;-53
2023/07/31 11:33:12;;;;;;;0.93;0.50;;;;;;;32.18;43.70;94668.88;5112399;28;20469;-52
2023/07/31 11:35:45;;;;;;;0.60;0.60;;;;;;;31.79;44.09;94662.16;5112728;28;20447;-52
2023/07/31 11:38:23;;;;;;;1.70;0.50;;;;;;;31.81;42.70;94668.00;5112627;28;20434;-52
2023/07/31 11:40:52;;;;;;;0.80;0.80;;;;;;;31.11;43.49;94650.06;5112268;28;20497;-53
2023/07/31 11:43:21;;;;;;;0.87;0.77;;;;;;;31.51;43.55;94653.69;5111961;28;20541;-53